sensor_id;sensor_type;location;lat;lon;timestamp;pressure;altitude;pressure_sealevel;temperature;humidity
60479;BME280;46321;48.398;11.754;2023-03-04T00:01:11;96930.47;;;1.03;76.95
60479;BME280;46321;48.398;11.754;2023-03-04T00:03:36;96932.00;;;1.06;76.80
60479;BME280;46321;48.398;11.754;2023-03-04T00:06:02;96930.47;;;1.03;76.91
60479;BME280;46321;48.398;11.754;2023-03-04T00:08:27;96921.09;;;1.00;76.63
60479;BME280;46321;48.398;11.754;2023-03-04T00:10:53;96929.00;;;0.99;76.66
60479;BME280;46321;48.398;11.754;2023-03-04T00:13:18;96931.81;;;0.96;76.64
60479;BME280;46321;48.398;11.754;2023-03-04T00:15:46;96940.56;;;0.95;77.04
60479;BME280;46321;48.398;11.754;2023-03-04T00:18:11;96933.16;;;0.88;77.07
60479;BME280;46321;48.398;11.754;2023-03-04T00:20:36;96935.16;;;0.85;77.32
60479;BME280;46321;48.398;11.754;2023-03-04T00:23:01;96932.13;;;0.78;77.54
60479;BME280;46321;48.398;11.754;2023-03-04T00:25:27;96927.09;;;0.75;77.57
60479;BME280;46321;48.398;11.754;2023-03-04T00:27:52;96928.69;;;0.77;77.40
60479;BME280;46321;48.398;11.754;2023-03-04T00:30:17;96942.13;;;0.71;77.50
60479;BME280;46321;48.398;11.754;2023-03-04T00:32:42;96945.56;;;0.72;77.31
60479;BME280;46321;48.398;11.754;2023-03-04T00:35:08;96940.75;;;0.65;78.14
60479;BME280;46321;48.398;11.754;2023-03-04T00:37:33;96942.53;;;0.65;77.89
60479;BME280;46321;48.398;11.754;2023-03-04T00:39:58;96937.81;;;0.57;78.32
60479;BME280;46321;48.398;11.754;2023-03-04T00:42:24;96949.06;;;0.57;78.62
60479;BME280;46321;48.398;11.754;2023-03-04T00:44:49;96940.53;;;0.55;78.07
60479;BME280;46321;48.398;11.754;2023-03-04T00:47:15;96942.28;;;0.55;78.61
60479;BME280;46321;48.398;11.754;2023-03-04T00:49:40;96943.53;;;0.49;78.44
60479;BME280;46321;48.398;11.754;2023-03-04T00:52:06;96936.94;;;0.43;78.58
60479;BME280;46321;48.398;11.754;2023-03-04T00:54:31;96940.19;;;0.47;78.60
60479;BME280;46321;48.398;11.754;2023-03-04T00:56:57;96938.72;;;0.43;78.68
60479;BME280;46321;48.398;11.754;2023-03-04T00:59:22;96933.72;;;0.40;78.88
60479;BME280;46321;48.398;11.754;2023-03-04T01:01:47;96933.78;;;0.38;78.70
60479;BME280;46321;48.398;11.754;2023-03-04T01:04:12;96936.50;;;0.37;79.00
60479;BME280;46321;48.398;11.754;2023-03-04T01:06:38;96931.72;;;0.30;79.29
60479;BME280;46321;48.398;11.754;2023-03-04T01:09:03;96924.19;;;0.26;79.07
60479;BME280;46321;48.398;11.754;2023-03-04T01:11:28;96926.97;;;0.22;79.23
60479;BME280;46321;48.398;11.754;2023-03-04T01:13:53;96919.50;;;0.18;79.25
60479;BME280;46321;48.398;11.754;2023-03-04T01:16:19;96919.38;;;0.19;79.26
60479;BME280;46321;48.398;11.754;2023-03-04T01:18:44;96911.56;;;0.19;79.32
60479;BME280;46321;48.398;11.754;2023-03-04T01:21:11;96916.13;;;0.16;79.68
60479;BME280;46321;48.398;11.754;2023-03-04T01:23:36;96909.25;;;0.15;79.45
60479;BME280;46321;48.398;11.754;2023-03-04T01:26:02;96911.31;;;0.09;79.80
60479;BME280;46321;48.398;11.754;2023-03-04T01:28:27;96909.75;;;0.07;79.53
60479;BME280;46321;48.398;11.754;2023-03-04T01:30:52;96913.00;;;0.10;79.91
60479;BME280;46321;48.398;11.754;2023-03-04T01:33:18;96905.50;;;0.06;79.95
60479;BME280;46321;48.398;11.754;2023-03-04T01:35:43;96907.53;;;0.01;79.84
60479;BME280;46321;48.398;11.754;2023-03-04T01:38:08;96905.88;;;-0.01;79.65
60479;BME280;46321;48.398;11.754;2023-03-04T01:40:34;96895.19;;;0.04;79.58
60479;BME280;46321;48.398;11.754;2023-03-04T01:42:59;96895.56;;;-0.02;80.13
60479;BME280;46321;48.398;11.754;2023-03-04T01:45:24;96901.81;;;-0.05;80.39
60479;BME280;46321;48.398;11.754;2023-03-04T01:47:50;96897.53;;;-0.06;80.56
60479;BME280;46321;48.398;11.754;2023-03-04T01:50:22;96890.84;;;-0.10;80.51
60479;BME280;46321;48.398;11.754;2023-03-04T01:52:50;96892.81;;;-0.14;80.08
60479;BME280;46321;48.398;11.754;2023-03-04T01:55:17;96888.00;;;-0.20;80.20
60479;BME280;46321;48.398;11.754;2023-03-04T01:57:44;96891.44;;;-0.19;80.35
60479;BME280;46321;48.398;11.754;2023-03-04T02:00:24;96892.09;;;-0.16;80.24
60479;BME280;46321;48.398;11.754;2023-03-04T02:02:53;96886.03;;;-0.16;80.37
60479;BME280;46321;48.398;11.754;2023-03-04T02:05:20;96887.19;;;-0.20;80.50
60479;BME280;46321;48.398;11.754;2023-03-04T02:07:46;96888.09;;;-0.21;80.52
60479;BME280;46321;48.398;11.754;2023-03-04T02:10:12;96890.50;;;-0.18;80.57
60479;BME280;46321;48.398;11.754;2023-03-04T02:12:38;96885.38;;;-0.20;80.16
60479;BME280;46321;48.398;11.754;2023-03-04T02:15:04;96883.72;;;-0.21;80.14
60479;BME280;46321;48.398;11.754;2023-03-04T02:17:30;96888.19;;;-0.23;80.08
60479;BME280;46321;48.398;11.754;2023-03-04T02:20:16;96880.41;;;-0.23;80.19
60479;BME280;46321;48.398;11.754;2023-03-04T02:23:37;96877.34;;;-0.30;80.32
60479;BME280;46321;48.398;11.754;2023-03-04T02:25:46;96880.78;;;-0.29;80.06
60479;BME280;46321;48.398;11.754;2023-03-04T02:28:12;96876.41;;;-0.29;80.06
60479;BME280;46321;48.398;11.754;2023-03-04T02:30:38;96874.63;;;-0.28;80.45
60479;BME280;46321;48.398;11.754;2023-03-04T02:33:03;96873.72;;;-0.27;80.41
60479;BME280;46321;48.398;11.754;2023-03-04T02:35:29;96876.94;;;-0.24;80.16
60479;BME280;46321;48.398;11.754;2023-03-04T02:37:54;96865.69;;;-0.24;80.34
60479;BME280;46321;48.398;11.754;2023-03-04T02:40:27;96873.78;;;-0.29;80.44
60479;BME280;46321;48.398;11.754;2023-03-04T02:42:53;96880.25;;;-0.35;80.72
60479;BME280;46321;48.398;11.754;2023-03-04T02:45:39;96883.47;;;-0.31;80.89
60479;BME280;46321;48.398;11.754;2023-03-04T02:48:05;96877.75;;;-0.36;80.47
60479;BME280;46321;48.398;11.754;2023-03-04T02:50:34;96874.19;;;-0.35;80.25
60479;BME280;46321;48.398;11.754;2023-03-04T02:53:00;96878.38;;;-0.32;80.26
60479;BME280;46321;48.398;11.754;2023-03-04T02:55:25;96870.00;;;-0.38;80.32
60479;BME280;46321;48.398;11.754;2023-03-04T02:57:51;96865.53;;;-0.36;79.92
60479;BME280;46321;48.398;11.754;2023-03-04T03:00:17;96866.38;;;-0.35;79.68
60479;BME280;46321;48.398;11.754;2023-03-04T03:02:42;96870.13;;;-0.39;79.87
60479;BME280;46321;48.398;11.754;2023-03-04T03:05:08;96869.38;;;-0.41;80.09
60479;BME280;46321;48.398;11.754;2023-03-04T03:07:33;96872.09;;;-0.43;79.93
60479;BME280;46321;48.398;11.754;2023-03-04T03:10:03;96878.50;;;-0.49;80.18
60479;BME280;46321;48.398;11.754;2023-03-04T03:12:28;96876.75;;;-0.48;80.22
60479;BME280;46321;48.398;11.754;2023-03-04T03:14:53;96871.63;;;-0.50;80.16
60479;BME280;46321;48.398;11.754;2023-03-04T03:17:18;96870.25;;;-0.55;80.39
60479;BME280;46321;48.398;11.754;2023-03-04T03:19:44;96866.72;;;-0.54;80.42
60479;BME280;46321;48.398;11.754;2023-03-04T03:22:09;96872.66;;;-0.52;80.20
60479;BME280;46321;48.398;11.754;2023-03-04T03:24:34;96868.47;;;-0.55;80.25
60479;BME280;46321;48.398;11.754;2023-03-04T03:26:59;96876.28;;;-0.55;80.25
60479;BME280;46321;48.398;11.754;2023-03-04T03:29:25;96875.53;;;-0.57;80.60
60479;BME280;46321;48.398;11.754;2023-03-04T03:31:50;96880.94;;;-0.60;80.86
60479;BME280;46321;48.398;11.754;2023-03-04T03:34:15;96875.00;;;-0.62;80.33
60479;BME280;46321;48.398;11.754;2023-03-04T03:36:41;96874.19;;;-0.63;79.94
60479;BME280;46321;48.398;11.754;2023-03-04T03:39:06;96886.34;;;-0.63;80.14
60479;BME280;46321;48.398;11.754;2023-03-04T03:41:31;96883.19;;;-0.68;80.58
60479;BME280;46321;48.398;11.754;2023-03-04T03:43:56;96880.56;;;-0.68;80.45
60479;BME280;46321;48.398;11.754;2023-03-04T03:46:22;96876.31;;;-0.70;80.41
60479;BME280;46321;48.398;11.754;2023-03-04T03:48:47;96877.97;;;-0.68;80.31
60479;BME280;46321;48.398;11.754;2023-03-04T03:51:12;96880.00;;;-0.74;80.41
60479;BME280;46321;48.398;11.754;2023-03-04T03:53:38;96885.13;;;-0.72;80.36
60479;BME280;46321;48.398;11.754;2023-03-04T03:56:03;96881.88;;;-0.76;80.43
60479;BME280;46321;48.398;11.754;2023-03-04T03:58:29;96876.94;;;-0.81;80.33
60479;BME280;46321;48.398;11.754;2023-03-04T04:00:54;96873.34;;;-0.78;80.50
60479;BME280;46321;48.398;11.754;2023-03-04T04:03:19;96879.47;;;-0.79;80.99
60479;BME280;46321;48.398;11.754;2023-03-04T04:05:45;96870.94;;;-0.81;80.31
60479;BME280;46321;48.398;11.754;2023-03-04T04:08:13;96878.81;;;-0.83;80.52
60479;BME280;46321;48.398;11.754;2023-03-04T04:10:39;96870.38;;;-0.86;80.35
60479;BME280;46321;48.398;11.754;2023-03-04T04:13:04;96870.22;;;-0.83;80.11
60479;BME280;46321;48.398;11.754;2023-03-04T04:15:29;96869.63;;;-0.88;80.22
60479;BME280;46321;48.398;11.754;2023-03-04T04:17:55;96872.97;;;-0.86;80.15
60479;BME280;46321;48.398;11.754;2023-03-04T04:20:20;96866.75;;;-0.84;80.00
60479;BME280;46321;48.398;11.754;2023-03-04T04:22:45;96864.44;;;-0.88;80.05
60479;BME280;46321;48.398;11.754;2023-03-04T04:25:10;96862.22;;;-0.95;80.27
60479;BME280;46321;48.398;11.754;2023-03-04T04:27:36;96864.72;;;-0.93;80.26
60479;BME280;46321;48.398;11.754;2023-03-04T04:30:01;96874.56;;;-0.98;80.25
60479;BME280;46321;48.398;11.754;2023-03-04T04:32:27;96855.63;;;-1.00;80.46
60479;BME280;46321;48.398;11.754;2023-03-04T04:34:52;96867.97;;;-1.04;80.34
60479;BME280;46321;48.398;11.754;2023-03-04T04:37:17;96855.16;;;-1.07;80.51
60479;BME280;46321;48.398;11.754;2023-03-04T04:39:42;96862.88;;;-1.06;80.66
60479;BME280;46321;48.398;11.754;2023-03-04T04:42:09;96863.22;;;-1.12;80.83
60479;BME280;46321;48.398;11.754;2023-03-04T04:44:35;96862.41;;;-1.12;80.54
60479;BME280;46321;48.398;11.754;2023-03-04T04:47:03;96856.66;;;-1.18;80.64
60479;BME280;46321;48.398;11.754;2023-03-04T04:49:28;96858.41;;;-1.18;80.79
60479;BME280;46321;48.398;11.754;2023-03-04T04:51:54;96853.13;;;-1.17;80.49
60479;BME280;46321;48.398;11.754;2023-03-04T04:54:19;96856.47;;;-1.14;80.51
60479;BME280;46321;48.398;11.754;2023-03-04T04:56:44;96858.41;;;-1.18;80.64
60479;BME280;46321;48.398;11.754;2023-03-04T04:59:09;96854.63;;;-1.12;80.06
60479;BME280;46321;48.398;11.754;2023-03-04T05:01:35;96865.09;;;-1.14;80.26
60479;BME280;46321;48.398;11.754;2023-03-04T05:04:00;96860.16;;;-1.19;80.14
60479;BME280;46321;48.398;11.754;2023-03-04T05:06:26;96863.88;;;-1.23;80.19
60479;BME280;46321;48.398;11.754;2023-03-04T05:08:52;96865.66;;;-1.23;80.16
60479;BME280;46321;48.398;11.754;2023-03-04T05:11:18;96865.72;;;-1.25;79.94
60479;BME280;46321;48.398;11.754;2023-03-04T05:13:44;96867.69;;;-1.29;80.34
60479;BME280;46321;48.398;11.754;2023-03-04T05:16:09;96867.97;;;-1.33;80.08
60479;BME280;46321;48.398;11.754;2023-03-04T05:18:34;96862.28;;;-1.40;80.37
60479;BME280;46321;48.398;11.754;2023-03-04T05:21:01;96870.91;;;-1.40;80.11
60479;BME280;46321;48.398;11.754;2023-03-04T05:23:32;96872.78;;;-1.42;80.28
60479;BME280;46321;48.398;11.754;2023-03-04T05:25:58;96878.88;;;-1.43;80.57
60479;BME280;46321;48.398;11.754;2023-03-04T05:28:24;96884.28;;;-1.46;80.41
60479;BME280;46321;48.398;11.754;2023-03-04T05:30:49;96876.28;;;-1.43;80.45
60479;BME280;46321;48.398;11.754;2023-03-04T05:33:15;96878.88;;;-1.43;80.49
60479;BME280;46321;48.398;11.754;2023-03-04T05:35:42;96879.81;;;-1.44;80.79
60479;BME280;46321;48.398;11.754;2023-03-04T05:38:10;96880.94;;;-1.48;80.85
60479;BME280;46321;48.398;11.754;2023-03-04T05:40:36;96882.00;;;-1.52;81.33
60479;BME280;46321;48.398;11.754;2023-03-04T05:43:02;96874.53;;;-1.57;80.89
60479;BME280;46321;48.398;11.754;2023-03-04T05:45:28;96868.56;;;-1.59;80.69
60479;BME280;46321;48.398;11.754;2023-03-04T05:47:53;96874.94;;;-1.65;81.22
60479;BME280;46321;48.398;11.754;2023-03-04T05:50:19;96882.31;;;-1.57;81.29
60479;BME280;46321;48.398;11.754;2023-03-04T05:52:45;96880.53;;;-1.56;81.29
60479;BME280;46321;48.398;11.754;2023-03-04T05:55:11;96880.47;;;-1.55;81.27
60479;BME280;46321;48.398;11.754;2023-03-04T05:57:36;96880.94;;;-1.48;81.13
60479;BME280;46321;48.398;11.754;2023-03-04T06:00:03;96885.34;;;-1.50;81.20
60479;BME280;46321;48.398;11.754;2023-03-04T06:02:29;96879.50;;;-1.54;81.29
60479;BME280;46321;48.398;11.754;2023-03-04T06:04:55;96882.97;;;-1.53;81.24
60479;BME280;46321;48.398;11.754;2023-03-04T06:07:20;96885.56;;;-1.53;81.67
60479;BME280;46321;48.398;11.754;2023-03-04T06:09:47;96891.66;;;-1.54;81.53
60479;BME280;46321;48.398;11.754;2023-03-04T06:12:12;96882.84;;;-1.52;81.38
60479;BME280;46321;48.398;11.754;2023-03-04T06:14:37;96888.06;;;-1.52;81.64
60479;BME280;46321;48.398;11.754;2023-03-04T06:17:03;96897.06;;;-1.43;81.47
60479;BME280;46321;48.398;11.754;2023-03-04T06:19:28;96893.19;;;-1.35;81.33
60479;BME280;46321;48.398;11.754;2023-03-04T06:21:53;96904.69;;;-1.25;80.87
60479;BME280;46321;48.398;11.754;2023-03-04T06:24:19;96898.97;;;-1.16;80.83
60479;BME280;46321;48.398;11.754;2023-03-04T06:26:44;96910.47;;;-1.05;80.90
60479;BME280;46321;48.398;11.754;2023-03-04T06:29:10;96907.25;;;-0.94;80.89
60479;BME280;46321;48.398;11.754;2023-03-04T06:31:35;96907.34;;;-0.81;80.48
60479;BME280;46321;48.398;11.754;2023-03-04T06:34:00;96909.06;;;-0.67;80.17
60479;BME280;46321;48.398;11.754;2023-03-04T06:36:25;96914.38;;;-0.54;79.99
60479;BME280;46321;48.398;11.754;2023-03-04T06:38:51;96918.63;;;-0.38;79.54
60479;BME280;46321;48.398;11.754;2023-03-04T06:41:16;96915.13;;;-0.24;79.27
60479;BME280;46321;48.398;11.754;2023-03-04T06:43:41;96915.75;;;-0.06;78.89
60479;BME280;46321;48.398;11.754;2023-03-04T06:46:07;96922.56;;;0.10;78.26
60479;BME280;46321;48.398;11.754;2023-03-04T06:48:33;96921.41;;;0.29;77.98
60479;BME280;46321;48.398;11.754;2023-03-04T06:51:10;96920.00;;;0.51;77.46
60479;BME280;46321;48.398;11.754;2023-03-04T06:53:36;96923.03;;;0.71;76.41
60479;BME280;46321;48.398;11.754;2023-03-04T06:56:02;96918.47;;;0.87;75.74
60479;BME280;46321;48.398;11.754;2023-03-04T06:58:27;96927.88;;;1.03;75.20
60479;BME280;46321;48.398;11.754;2023-03-04T07:00:52;96926.72;;;1.20;74.57
60479;BME280;46321;48.398;11.754;2023-03-04T07:03:18;96932.94;;;1.44;74.30
60479;BME280;46321;48.398;11.754;2023-03-04T07:05:43;96932.91;;;1.57;73.47
60479;BME280;46321;48.398;11.754;2023-03-04T07:08:08;96926.22;;;1.66;72.65
60479;BME280;46321;48.398;11.754;2023-03-04T07:10:34;96926.28;;;1.77;71.94
60479;BME280;46321;48.398;11.754;2023-03-04T07:13:00;96934.91;;;1.91;72.20
60479;BME280;46321;48.398;11.754;2023-03-04T07:15:25;96939.53;;;2.12;71.47
60479;BME280;46321;48.398;11.754;2023-03-04T07:17:50;96932.69;;;2.22;70.55
60479;BME280;46321;48.398;11.754;2023-03-04T07:20:16;96938.47;;;2.39;69.65
60479;BME280;46321;48.398;11.754;2023-03-04T07:22:42;96931.78;;;2.59;69.72
60479;BME280;46321;48.398;11.754;2023-03-04T07:25:07;96939.09;;;2.79;69.05
60479;BME280;46321;48.398;11.754;2023-03-04T07:27:33;96936.78;;;3.10;68.05
60479;BME280;46321;48.398;11.754;2023-03-04T07:29:58;96937.16;;;3.28;67.35
60479;BME280;46321;48.398;11.754;2023-03-04T07:32:23;96938.69;;;3.54;66.92
60479;BME280;46321;48.398;11.754;2023-03-04T07:34:49;96941.19;;;3.78;65.95
60479;BME280;46321;48.398;11.754;2023-03-04T07:37:15;96937.81;;;3.99;64.99
60479;BME280;46321;48.398;11.754;2023-03-04T07:39:40;96942.75;;;4.26;64.61
60479;BME280;46321;48.398;11.754;2023-03-04T07:42:05;96937.34;;;4.60;63.21
60479;BME280;46321;48.398;11.754;2023-03-04T07:44:31;96947.63;;;4.85;62.32
60479;BME280;46321;48.398;11.754;2023-03-04T07:46:56;96941.19;;;5.20;61.58
60479;BME280;46321;48.398;11.754;2023-03-04T07:49:21;96943.28;;;5.58;60.62
60479;BME280;46321;48.398;11.754;2023-03-04T07:51:46;96946.63;;;6.01;59.60
60479;BME280;46321;48.398;11.754;2023-03-04T07:54:12;96949.22;;;6.43;58.58
60479;BME280;46321;48.398;11.754;2023-03-04T07:56:37;96950.72;;;6.75;57.59
60479;BME280;46321;48.398;11.754;2023-03-04T07:59:02;96949.69;;;7.06;55.80
60479;BME280;46321;48.398;11.754;2023-03-04T08:01:33;96953.09;;;7.36;54.59
60479;BME280;46321;48.398;11.754;2023-03-04T08:03:59;96952.88;;;7.58;53.60
60479;BME280;46321;48.398;11.754;2023-03-04T08:06:25;96954.28;;;7.90;53.13
60479;BME280;46321;48.398;11.754;2023-03-04T08:08:56;96959.03;;;8.33;52.29
60479;BME280;46321;48.398;11.754;2023-03-04T08:11:21;96950.53;;;8.76;51.43
60479;BME280;46321;48.398;11.754;2023-03-04T08:13:47;96951.28;;;8.86;49.44
60479;BME280;46321;48.398;11.754;2023-03-04T08:16:14;96952.47;;;9.19;48.79
60479;BME280;46321;48.398;11.754;2023-03-04T08:18:42;96944.00;;;9.33;47.49
60479;BME280;46321;48.398;11.754;2023-03-04T08:21:09;96945.28;;;9.56;47.51
60479;BME280;46321;48.398;11.754;2023-03-04T08:23:35;96945.22;;;9.74;46.91
60479;BME280;46321;48.398;11.754;2023-03-04T08:26:05;96948.81;;;10.08;45.75
60479;BME280;46321;48.398;11.754;2023-03-04T08:28:31;96942.63;;;10.68;44.36
60479;BME280;46321;48.398;11.754;2023-03-04T08:30:56;96941.94;;;11.16;43.84
60479;BME280;46321;48.398;11.754;2023-03-04T08:33:21;96938.25;;;11.50;43.18
60479;BME280;46321;48.398;11.754;2023-03-04T08:35:47;96949.31;;;11.62;41.38
60479;BME280;46321;48.398;11.754;2023-03-04T08:38:12;96942.09;;;11.39;41.21
60479;BME280;46321;48.398;11.754;2023-03-04T08:40:37;96941.66;;;11.67;41.62
60479;BME280;46321;48.398;11.754;2023-03-04T08:43:02;96941.56;;;12.33;40.31
60479;BME280;46321;48.398;11.754;2023-03-04T08:45:28;96947.06;;;12.78;39.42
60479;BME280;46321;48.398;11.754;2023-03-04T08:47:53;96945.84;;;13.04;38.31
60479;BME280;46321;48.398;11.754;2023-03-04T08:50:18;96942.31;;;13.27;38.63
60479;BME280;46321;48.398;11.754;2023-03-04T08:52:44;96939.97;;;13.78;37.86
60479;BME280;46321;48.398;11.754;2023-03-04T08:55:09;96941.22;;;14.13;36.07
60479;BME280;46321;48.398;11.754;2023-03-04T08:57:34;96946.72;;;14.48;36.18
60479;BME280;46321;48.398;11.754;2023-03-04T08:59:59;96947.19;;;14.96;34.63
60479;BME280;46321;48.398;11.754;2023-03-04T09:02:25;96943.56;;;15.04;34.34
60479;BME280;46321;48.398;11.754;2023-03-04T09:04:50;96946.63;;;15.29;34.20
60479;BME280;46321;48.398;11.754;2023-03-04T09:07:15;96941.81;;;15.47;33.64
60479;BME280;46321;48.398;11.754;2023-03-04T09:09:41;96930.84;;;16.06;33.17
60479;BME280;46321;48.398;11.754;2023-03-04T09:12:06;96933.16;;;16.22;32.57
60479;BME280;46321;48.398;11.754;2023-03-04T09:14:33;96939.34;;;16.36;32.18
60479;BME280;46321;48.398;11.754;2023-03-04T09:17:00;96938.41;;;17.05;31.74
60479;BME280;46321;48.398;11.754;2023-03-04T09:19:25;96931.22;;;17.13;29.63
60479;BME280;46321;48.398;11.754;2023-03-04T09:21:52;96926.28;;;17.37;29.68
60479;BME280;46321;48.398;11.754;2023-03-04T09:24:19;96927.53;;;18.07;28.99
60479;BME280;46321;48.398;11.754;2023-03-04T09:26:44;96920.81;;;18.30;27.84
60479;BME280;46321;48.398;11.754;2023-03-04T09:29:10;96922.28;;;18.26;27.61
60479;BME280;46321;48.398;11.754;2023-03-04T09:31:35;96921.44;;;18.33;27.19
60479;BME280;46321;48.398;11.754;2023-03-04T09:34:00;96921.91;;;18.87;26.87
60479;BME280;46321;48.398;11.754;2023-03-04T09:36:25;96923.59;;;19.07;25.84
60479;BME280;46321;48.398;11.754;2023-03-04T09:38:51;96918.94;;;19.47;26.08
60479;BME280;46321;48.398;11.754;2023-03-04T09:41:25;96915.44;;;19.65;25.13
60479;BME280;46321;48.398;11.754;2023-03-04T09:43:54;96916.53;;;20.14;25.02
60479;BME280;46321;48.398;11.754;2023-03-04T09:46:47;96918.00;;;20.59;24.50
60479;BME280;46321;48.398;11.754;2023-03-04T09:49:13;96923.97;;;21.04;23.96
60479;BME280;46321;48.398;11.754;2023-03-04T09:51:45;96920.47;;;21.40;23.76
60479;BME280;46321;48.398;11.754;2023-03-04T09:54:25;96916.78;;;21.94;23.05
60479;BME280;46321;48.398;11.754;2023-03-04T09:56:58;96907.84;;;22.35;22.76
60479;BME280;46321;48.398;11.754;2023-03-04T09:59:33;96907.59;;;22.83;22.71
60479;BME280;46321;48.398;11.754;2023-03-04T10:02:06;96917.34;;;22.84;22.05
60479;BME280;46321;48.398;11.754;2023-03-04T10:04:59;96906.63;;;23.64;21.49
60479;BME280;46321;48.398;11.754;2023-03-04T10:07:32;96909.84;;;23.61;21.39
60479;BME280;46321;48.398;11.754;2023-03-04T10:10:03;96911.00;;;23.65;20.69
60479;BME280;46321;48.398;11.754;2023-03-04T10:12:32;96904.50;;;24.11;20.15
60479;BME280;46321;48.398;11.754;2023-03-04T10:15:01;96902.91;;;24.65;20.17
60479;BME280;46321;48.398;11.754;2023-03-04T10:22:36;96902.66;;;25.38;19.04
60479;BME280;46321;48.398;11.754;2023-03-04T10:28:17;96900.59;;;25.56;19.30
60479;BME280;46321;48.398;11.754;2023-03-04T10:30:55;96900.53;;;25.94;19.18
60479;BME280;46321;48.398;11.754;2023-03-04T10:33:25;96885.44;;;26.29;18.76
60479;BME280;46321;48.398;11.754;2023-03-04T10:38:39;96891.13;;;26.38;18.67
60479;BME280;46321;48.398;11.754;2023-03-04T10:41:16;96893.09;;;26.69;18.11
60479;BME280;46321;48.398;11.754;2023-03-04T10:46:23;96877.31;;;25.16;19.80
60479;BME280;46321;48.398;11.754;2023-03-04T10:48:48;96881.47;;;25.78;18.61
60479;BME280;46321;48.398;11.754;2023-03-04T10:51:21;96884.72;;;25.26;19.83
60479;BME280;46321;48.398;11.754;2023-03-04T10:53:58;96881.25;;;25.90;18.44
60479;BME280;46321;48.398;11.754;2023-03-04T10:56:31;96885.16;;;26.36;18.30
60479;BME280;46321;48.398;11.754;2023-03-04T10:59:30;96873.16;;;26.01;19.01
60479;BME280;46321;48.398;11.754;2023-03-04T11:01:58;96875.94;;;25.57;18.99
60479;BME280;46321;48.398;11.754;2023-03-04T11:04:25;96877.69;;;25.31;19.25
60479;BME280;46321;48.398;11.754;2023-03-04T11:06:51;96872.81;;;25.76;18.98
60479;BME280;46321;48.398;11.754;2023-03-04T11:09:23;96885.34;;;25.98;19.16
60479;BME280;46321;48.398;11.754;2023-03-04T11:11:51;96875.66;;;26.34;18.35
60479;BME280;46321;48.398;11.754;2023-03-04T11:14:34;96878.13;;;26.30;17.90
60479;BME280;46321;48.398;11.754;2023-03-04T11:17:08;96883.22;;;26.21;18.41
60479;BME280;46321;48.398;11.754;2023-03-04T11:19:41;96874.63;;;26.50;17.84
60479;BME280;46321;48.398;11.754;2023-03-04T11:22:13;96869.44;;;26.44;17.77
60479;BME280;46321;48.398;11.754;2023-03-04T11:24:42;96869.19;;;26.45;17.98
60479;BME280;46321;48.398;11.754;2023-03-04T11:27:16;96865.78;;;25.91;18.33
60479;BME280;46321;48.398;11.754;2023-03-04T11:29:54;96871.03;;;25.54;18.48
60479;BME280;46321;48.398;11.754;2023-03-04T11:32:42;96869.66;;;26.16;18.91
60479;BME280;46321;48.398;11.754;2023-03-04T11:35:33;96873.22;;;25.57;18.49
60479;BME280;46321;48.398;11.754;2023-03-04T11:38:05;96871.69;;;25.23;19.22
60479;BME280;46321;48.398;11.754;2023-03-04T11:40:43;96867.03;;;25.13;18.80
60479;BME280;46321;48.398;11.754;2023-03-04T11:43:35;96872.34;;;24.98;19.10
60479;BME280;46321;48.398;11.754;2023-03-04T11:49:07;96880.31;;;22.04;22.01
60479;BME280;46321;48.398;11.754;2023-03-04T11:52:04;96880.31;;;19.86;23.52
60479;BME280;46321;48.398;11.754;2023-03-04T12:00:51;96882.38;;;16.09;29.43
60479;BME280;46321;48.398;11.754;2023-03-04T12:14:20;96876.19;;;13.85;33.12
60479;BME280;46321;48.398;11.754;2023-03-04T12:16:33;96878.44;;;13.21;33.26
60479;BME280;46321;48.398;11.754;2023-03-04T12:21:56;96872.66;;;12.63;34.85
60479;BME280;46321;48.398;11.754;2023-03-04T12:27:28;96873.56;;;12.32;36.53
60479;BME280;46321;48.398;11.754;2023-03-04T12:30:05;96862.13;;;11.67;37.04
60479;BME280;46321;48.398;11.754;2023-03-04T12:33:03;96860.38;;;11.83;37.50
60479;BME280;46321;48.398;11.754;2023-03-04T12:41:12;96850.38;;;11.21;37.58
60479;BME280;46321;48.398;11.754;2023-03-04T12:49:23;96845.84;;;10.65;39.09
60479;BME280;46321;48.398;11.754;2023-03-04T12:54:38;96854.25;;;10.27;38.87
60479;BME280;46321;48.398;11.754;2023-03-04T12:59:49;96849.75;;;9.94;39.82
60479;BME280;46321;48.398;11.754;2023-03-04T13:08:45;96835.19;;;9.03;40.71
60479;BME280;46321;48.398;11.754;2023-03-04T13:14:05;96842.41;;;8.92;41.94
60479;BME280;46321;48.398;11.754;2023-03-04T13:16:41;96835.69;;;8.72;42.49
60479;BME280;46321;48.398;11.754;2023-03-04T13:19:43;96829.69;;;8.88;42.13
60479;BME280;46321;48.398;11.754;2023-03-04T13:24:58;96830.44;;;8.35;43.09
60479;BME280;46321;48.398;11.754;2023-03-04T13:32:56;96832.59;;;8.13;42.95
60479;BME280;46321;48.398;11.754;2023-03-04T13:41:15;96833.25;;;7.97;43.54
60479;BME280;46321;48.398;11.754;2023-03-04T13:43:53;96832.56;;;7.95;44.25
60479;BME280;46321;48.398;11.754;2023-03-04T13:56:35;96839.34;;;7.32;45.07
60479;BME280;46321;48.398;11.754;2023-03-04T14:04:19;96827.97;;;6.94;45.04
60479;BME280;46321;48.398;11.754;2023-03-04T14:06:46;96818.03;;;6.78;45.21
60479;BME280;46321;48.398;11.754;2023-03-04T14:09:13;96822.09;;;6.62;45.79
60479;BME280;46321;48.398;11.754;2023-03-04T14:11:39;96825.69;;;6.71;45.53
60479;BME280;46321;48.398;11.754;2023-03-04T14:14:13;96818.63;;;6.71;45.79
60479;BME280;46321;48.398;11.754;2023-03-04T14:19:27;96817.56;;;6.44;46.63
60479;BME280;46321;48.398;11.754;2023-03-04T14:21:54;96810.66;;;6.33;46.85
60479;BME280;46321;48.398;11.754;2023-03-04T14:24:20;96813.56;;;6.30;46.87
60479;BME280;46321;48.398;11.754;2023-03-04T14:26:47;96821.47;;;6.20;47.25
60479;BME280;46321;48.398;11.754;2023-03-04T14:29:28;96812.84;;;5.78;47.86
60479;BME280;46321;48.398;11.754;2023-03-04T14:31:54;96813.53;;;5.80;48.26
60479;BME280;46321;48.398;11.754;2023-03-04T14:34:32;96804.69;;;5.81;47.90